createdAt,value
2023-04-09T00:01:28.139Z,8.25
2023-04-09T00:03:57.004Z,8.72
2023-04-09T00:06:26.117Z,8.72
2023-04-09T00:08:54.625Z,8.48
2023-04-09T00:11:23.296Z,8.17
2023-04-09T00:13:52.581Z,7.88
2023-04-09T00:16:21.200Z,7.69
2023-04-09T00:18:49.790Z,8.12
2023-04-09T00:21:18.449Z,8.61
2023-04-09T00:23:47.128Z,8.62
2023-04-09T00:26:16.011Z,8.39
2023-04-09T00:28:44.490Z,8.07
2023-04-09T00:31:13.627Z,7.77
2023-04-09T00:33:43.242Z,7.56
2023-04-09T00:36:13.448Z,7.96
2023-04-09T00:38:42.210Z,8.43
2023-04-09T00:41:13.461Z,8.38
2023-04-09T00:43:42.133Z,8.15
2023-04-09T00:46:11.065Z,7.84
2023-04-09T00:48:40.122Z,7.63
2023-04-09T00:51:08.497Z,7.53
2023-04-09T00:53:37.598Z,8.02
2023-04-09T00:56:07.093Z,8.56
2023-04-09T00:58:41.119Z,8.56
2023-04-09T01:01:09.428Z,8.42
2023-04-09T01:03:39.461Z,8.28
2023-04-09T01:06:58.472Z,8.09
2023-04-09T01:09:37.391Z,7.95
2023-04-09T01:12:34.785Z,8.69
2023-04-09T01:15:07.772Z,9.15
2023-04-09T01:17:52.760Z,9.02
2023-04-09T01:20:42.686Z,8.67
2023-04-09T01:23:11.269Z,8.29
2023-04-09T01:26:02.801Z,8.02
2023-04-09T01:28:57.204Z,7.85
2023-04-09T01:31:28.825Z,8.54
2023-04-09T01:33:57.561Z,9.04
2023-04-09T01:36:26.002Z,9.03
2023-04-09T01:38:54.727Z,8.79
2023-04-09T01:41:23.482Z,8.49
2023-04-09T01:43:52.372Z,8.15
2023-04-09T01:46:22.014Z,7.83
2023-04-09T01:48:51.181Z,7.60
2023-04-09T01:51:20.592Z,8.00
2023-04-09T01:53:49.697Z,8.42
2023-04-09T01:56:18.053Z,8.32
2023-04-09T01:58:47.456Z,8.01
2023-04-09T02:01:35.377Z,7.58
2023-04-09T02:04:05.555Z,7.28
2023-04-09T02:06:54.478Z,7.20
2023-04-09T02:09:22.732Z,7.91
2023-04-09T02:11:52.248Z,8.45
2023-04-09T02:14:26.880Z,8.47
2023-04-09T02:16:56.803Z,8.22
2023-04-09T02:19:25.066Z,7.91
2023-04-09T02:21:58.873Z,7.61
2023-04-09T02:24:27.557Z,7.40
2023-04-09T02:26:56.037Z,7.84
2023-04-09T02:29:24.621Z,8.28
2023-04-09T02:31:53.917Z,8.29
2023-04-09T02:34:28.767Z,8.05
2023-04-09T02:36:57.585Z,7.74
2023-04-09T02:39:27.464Z,7.46
2023-04-09T02:41:56.446Z,7.25
2023-04-09T02:44:25.334Z,7.65
2023-04-09T02:46:54.567Z,8.05
2023-04-09T02:49:24.376Z,8.00
2023-04-09T02:51:52.931Z,7.77
2023-04-09T02:54:21.539Z,7.51
2023-04-09T02:56:50.300Z,7.27
2023-04-09T02:59:18.788Z,7.55
2023-04-09T03:01:48.979Z,7.79
2023-04-09T03:04:17.869Z,7.73
2023-04-09T03:06:46.562Z,7.54
2023-04-09T03:09:18.970Z,7.28
2023-04-09T03:11:47.437Z,7.13
2023-04-09T03:14:16.339Z,7.61
2023-04-09T03:16:50.892Z,8.14
2023-04-09T03:19:20.570Z,8.21
2023-04-09T03:21:49.610Z,8.08
2023-04-09T03:24:18.559Z,7.85
2023-04-09T03:26:46.941Z,7.62
2023-04-09T03:29:17.300Z,7.36
2023-04-09T03:31:46.158Z,7.82
2023-04-09T03:34:14.926Z,8.30
2023-04-09T03:36:43.336Z,8.41
2023-04-09T03:39:17.736Z,8.31
2023-04-09T03:41:46.818Z,8.01
2023-04-09T03:44:17.829Z,7.60
2023-04-09T03:47:09.188Z,7.29
2023-04-09T03:49:38.628Z,7.82
2023-04-09T03:52:16.688Z,8.24
2023-04-09T03:54:47.114Z,8.11
2023-04-09T03:57:20.097Z,7.76
2023-04-09T03:59:52.601Z,7.38
2023-04-09T04:02:22.927Z,7.20
2023-04-09T04:05:00.204Z,7.68
2023-04-09T04:07:33.065Z,8.14
2023-04-09T04:10:09.327Z,8.16
2023-04-09T04:12:44.154Z,7.96
2023-04-09T04:15:20.414Z,7.72
2023-04-09T04:17:53.768Z,7.51
2023-04-09T04:20:36.694Z,7.94
2023-04-09T04:23:28.772Z,8.35
2023-04-09T04:26:10.316Z,8.25
2023-04-09T04:28:39.490Z,8.04
2023-04-09T04:31:10.442Z,7.80
2023-04-09T04:33:40.775Z,7.60
2023-04-09T04:36:13.448Z,8.03
2023-04-09T04:38:46.488Z,8.51
2023-04-09T04:41:36.263Z,8.49
2023-04-09T04:44:10.850Z,8.17
2023-04-09T04:46:42.243Z,7.94
2023-04-09T04:49:10.951Z,7.75
2023-04-09T04:51:49.440Z,7.96
2023-04-09T04:54:18.054Z,8.27
2023-04-09T04:56:51.241Z,8.23
2023-04-09T04:59:43.517Z,7.96
2023-04-09T05:02:13.809Z,7.77
2023-04-09T05:04:53.752Z,7.73
2023-04-09T05:07:31.725Z,8.31
2023-04-09T05:10:00.334Z,8.37
2023-04-09T05:12:36.522Z,8.19
2023-04-09T05:15:09.098Z,8.08
2023-04-09T05:17:43.431Z,7.82
2023-04-09T05:20:12.766Z,8.14
2023-04-09T05:22:49.960Z,8.30
2023-04-09T05:25:18.860Z,8.34
2023-04-09T05:27:48.242Z,8.04
2023-04-09T05:30:16.832Z,7.89
2023-04-09T05:32:46.911Z,7.92
2023-04-09T05:35:16.142Z,8.35
2023-04-09T05:37:45.169Z,8.58
2023-04-09T05:40:15.265Z,8.43
2023-04-09T05:42:46.210Z,8.37
2023-04-09T05:45:21.452Z,8.22
2023-04-09T05:47:55.096Z,8.57
2023-04-09T05:50:25.053Z,9.04
2023-04-09T05:53:01.017Z,8.99
2023-04-09T05:55:37.686Z,8.74
2023-04-09T05:58:06.103Z,8.41
2023-04-09T06:00:35.365Z,8.26
2023-04-09T06:03:05.301Z,8.56
2023-04-09T06:05:33.893Z,8.95
2023-04-09T06:08:03.164Z,8.79
2023-04-09T06:10:34.836Z,8.50
2023-04-09T06:13:03.510Z,8.23
2023-04-09T06:15:35.274Z,8.48
2023-04-09T06:18:04.409Z,8.76
2023-04-09T06:20:32.988Z,8.77
2023-04-09T06:23:07.161Z,8.68
2023-04-09T06:25:36.864Z,8.44
2023-04-09T06:28:05.688Z,8.47
2023-04-09T06:30:37.512Z,8.91
2023-04-09T06:33:06.545Z,8.96
2023-04-09T06:35:35.144Z,8.51
2023-04-09T06:38:07.158Z,8.50
2023-04-09T06:40:39.218Z,8.56
2023-04-09T06:43:12.518Z,8.85
2023-04-09T06:45:52.354Z,8.85
2023-04-09T06:48:20.957Z,8.78
2023-04-09T06:50:51.004Z,8.51
2023-04-09T06:53:20.338Z,8.88
2023-04-09T06:55:49.163Z,9.29
2023-04-09T06:58:21.412Z,8.91
2023-04-09T07:00:49.840Z,8.73
2023-04-09T07:03:19.922Z,8.82
2023-04-09T07:05:49.942Z,9.23
2023-04-09T07:08:18.530Z,9.41
2023-04-09T07:10:52.950Z,9.30
2023-04-09T07:13:22.853Z,9.03
2023-04-09T07:15:51.231Z,8.72
2023-04-09T07:18:20.444Z,9.12
2023-04-09T07:20:48.902Z,9.41
2023-04-09T07:23:17.536Z,9.36
2023-04-09T07:25:48.642Z,9.03
2023-04-09T07:28:18.552Z,8.96
2023-04-09T07:30:47.333Z,9.10
2023-04-09T07:33:17.146Z,9.55
2023-04-09T07:35:47.182Z,9.56
2023-04-09T07:38:16.511Z,9.42
2023-04-09T07:40:47.504Z,9.15
2023-04-09T07:43:17.148Z,9.19
2023-04-09T07:45:46.208Z,9.61
2023-04-09T07:48:16.133Z,9.57
2023-04-09T07:50:48.508Z,9.22
2023-04-09T07:53:18.681Z,9.23
2023-04-09T07:55:47.412Z,9.26
2023-04-09T07:58:16.598Z,9.64
2023-04-09T08:00:50.242Z,10.14
2023-04-09T08:03:19.704Z,10.39
2023-04-09T08:05:48.697Z,10.39
2023-04-09T08:08:22.608Z,9.98
2023-04-09T08:10:51.842Z,9.94
2023-04-09T08:13:20.290Z,10.38
2023-04-09T08:15:56.377Z,10.41
2023-04-09T08:18:25.873Z,10.37
2023-04-09T08:20:54.751Z,10.24
2023-04-09T08:23:24.243Z,10.11
2023-04-09T08:25:53.254Z,10.06
2023-04-09T08:28:21.926Z,10.27
2023-04-09T08:30:51.324Z,10.56
2023-04-09T08:33:20.225Z,10.40
2023-04-09T08:35:48.698Z,10.71
2023-04-09T08:38:21.885Z,10.47
2023-04-09T08:40:50.485Z,10.34
2023-04-09T08:43:18.850Z,10.48
2023-04-09T08:45:47.844Z,11.00
2023-04-09T08:48:16.766Z,11.21
2023-04-09T08:50:48.801Z,11.02
2023-04-09T08:53:17.484Z,10.73
2023-04-09T08:55:46.885Z,10.50
2023-04-09T08:58:15.368Z,10.38
2023-04-09T09:00:45.636Z,10.70
2023-04-09T09:03:15.988Z,11.29
2023-04-09T09:05:45.503Z,11.25
2023-04-09T09:08:24.323Z,11.09
2023-04-09T09:10:52.940Z,10.93
2023-04-09T09:13:26.285Z,11.01
2023-04-09T09:15:56.630Z,11.14
2023-04-09T09:18:45.000Z,11.68
2023-04-09T09:21:15.896Z,11.79
2023-04-09T09:23:46.306Z,11.71
2023-04-09T09:26:19.553Z,11.82
2023-04-09T09:28:50.160Z,11.84
2023-04-09T09:31:20.028Z,11.79
2023-04-09T09:33:50.720Z,11.83
2023-04-09T09:36:33.269Z,11.71
2023-04-09T09:39:04.191Z,12.31
2023-04-09T09:41:38.611Z,12.51
2023-04-09T09:44:07.807Z,12.49
2023-04-09T09:46:41.601Z,12.35
2023-04-09T09:49:10.608Z,12.26
2023-04-09T09:51:40.146Z,12.10
2023-04-09T09:54:10.851Z,11.90
2023-04-09T09:56:39.712Z,12.12
2023-04-09T09:59:22.232Z,12.37
2023-04-09T10:01:55.905Z,12.69
2023-04-09T10:04:24.716Z,12.27
2023-04-09T10:06:53.709Z,12.39
2023-04-09T10:09:22.124Z,12.10
2023-04-09T10:11:50.820Z,11.63
2023-04-09T10:14:19.369Z,11.33
2023-04-09T10:16:47.959Z,11.47
2023-04-09T10:19:17.455Z,12.08
2023-04-09T10:21:56.169Z,12.51
2023-04-09T10:24:24.555Z,12.77
2023-04-09T10:26:58.580Z,12.76
2023-04-09T10:29:30.010Z,12.58
2023-04-09T10:32:06.927Z,12.23
2023-04-09T10:34:40.225Z,12.05
2023-04-09T10:37:10.417Z,11.92
2023-04-09T10:39:43.906Z,11.91
2023-04-09T10:42:45.767Z,11.95
2023-04-09T10:45:22.897Z,12.68
2023-04-09T10:47:54.510Z,13.00
2023-04-09T10:50:32.648Z,12.71
2023-04-09T10:53:02.836Z,12.61
2023-04-09T10:55:41.987Z,12.58
2023-04-09T10:58:13.223Z,12.66
2023-04-09T11:00:46.833Z,12.72
2023-04-09T11:03:22.081Z,12.80
2023-04-09T11:06:09.371Z,13.25
2023-04-09T11:08:39.806Z,13.55
2023-04-09T11:11:09.424Z,13.51
2023-04-09T11:13:41.884Z,13.35
2023-04-09T11:16:22.996Z,13.34
2023-04-09T11:19:03.232Z,13.12
2023-04-09T11:21:32.001Z,12.93
2023-04-09T11:24:03.558Z,12.77
2023-04-09T11:26:37.642Z,12.64
2023-04-09T11:29:09.047Z,12.72
2023-04-09T11:31:39.715Z,13.26
2023-04-09T11:34:34.343Z,13.52
2023-04-09T11:37:07.148Z,13.39
2023-04-09T11:39:38.982Z,13.13
2023-04-09T11:42:09.449Z,12.75
2023-04-09T11:44:47.162Z,12.51
2023-04-09T11:47:32.637Z,12.33
2023-04-09T11:50:03.150Z,12.28
2023-04-09T11:52:36.922Z,12.27
2023-04-09T11:59:29.602Z,12.92
2023-04-09T12:02:19.232Z,12.63
2023-04-09T12:04:51.235Z,12.47
2023-04-09T12:07:21.098Z,12.27
2023-04-09T12:09:58.167Z,12.08
2023-04-09T12:12:28.255Z,12.35
2023-04-09T12:15:25.730Z,12.74
2023-04-09T12:17:57.996Z,12.81
2023-04-09T12:20:35.142Z,12.80
2023-04-09T12:23:06.415Z,12.70
2023-04-09T12:25:41.555Z,12.71
2023-04-09T12:28:15.653Z,12.89
2023-04-09T12:30:45.694Z,13.30
2023-04-09T12:33:15.502Z,13.35
2023-04-09T12:35:47.941Z,13.19
2023-04-09T12:38:16.672Z,12.95
2023-04-09T12:40:45.660Z,12.70
2023-04-09T12:43:15.921Z,12.39
2023-04-09T12:45:45.734Z,12.05
2023-04-09T12:48:14.161Z,11.88
2023-04-09T12:50:45.723Z,11.99
2023-04-09T12:53:15.533Z,12.18
2023-04-09T12:55:45.237Z,11.95
2023-04-09T12:58:15.049Z,11.82
2023-04-09T13:00:44.404Z,11.67
2023-04-09T13:03:16.108Z,11.42
2023-04-09T13:05:44.935Z,11.58
2023-04-09T13:08:13.613Z,11.87
2023-04-09T13:10:46.672Z,11.68
2023-04-09T13:13:15.873Z,11.57
2023-04-09T13:15:45.797Z,11.41
2023-04-09T13:18:18.068Z,11.33
2023-04-09T13:20:46.843Z,11.75
2023-04-09T13:23:16.771Z,12.01
2023-04-09T13:25:50.465Z,11.87
2023-04-09T13:28:22.649Z,11.66
2023-04-09T13:30:52.985Z,11.44
2023-04-09T13:33:41.511Z,10.82
2023-04-09T13:36:10.126Z,10.07
2023-04-09T13:38:42.122Z,9.79
2023-04-09T13:41:10.821Z,9.58
2023-04-09T13:43:39.259Z,9.08
2023-04-09T13:46:10.946Z,8.93
2023-04-09T13:48:41.703Z,8.95
2023-04-09T13:51:12.876Z,9.17
2023-04-09T13:53:43.478Z,9.09
2023-04-09T13:56:12.195Z,8.78
2023-04-09T13:58:43.771Z,8.91
2023-04-09T14:01:12.221Z,9.29
2023-04-09T14:03:40.956Z,9.59
2023-04-09T14:06:10.212Z,9.62
2023-04-09T14:08:38.664Z,9.38
2023-04-09T14:11:07.351Z,8.86
2023-04-09T14:13:36.157Z,8.43
2023-04-09T14:16:05.978Z,8.61
2023-04-09T14:18:35.660Z,8.82
2023-04-09T14:21:09.964Z,8.61
2023-04-09T14:23:42.149Z,8.26
2023-04-09T14:26:12.382Z,7.84
2023-04-09T14:28:45.190Z,8.30
2023-04-09T14:31:22.762Z,8.31
2023-04-09T14:33:54.914Z,8.41
2023-04-09T14:36:24.936Z,8.50
2023-04-09T14:39:00.208Z,8.49
2023-04-09T14:41:34.490Z,9.07
2023-04-09T14:44:03.010Z,9.40
2023-04-09T14:46:35.962Z,9.22
2023-04-09T14:49:08.641Z,9.00
2023-04-09T14:51:39.078Z,8.83
2023-04-09T14:54:22.728Z,8.72
2023-04-09T14:56:53.433Z,9.31
2023-04-09T14:59:29.182Z,9.88
2023-04-09T15:02:08.944Z,9.61
2023-04-09T15:04:37.779Z,9.39
2023-04-09T15:07:12.373Z,9.16
2023-04-09T15:09:42.263Z,8.92
2023-04-09T15:12:10.847Z,9.30
2023-04-09T15:14:45.000Z,9.74
2023-04-09T15:17:31.454Z,9.69
2023-04-09T15:20:09.125Z,9.45
2023-04-09T15:22:57.396Z,9.15
2023-04-09T15:25:31.724Z,8.96
2023-04-09T15:28:02.481Z,9.37
2023-04-09T15:30:31.334Z,9.82
2023-04-09T15:33:04.808Z,9.79
2023-04-09T15:35:39.856Z,9.55
2023-04-09T15:38:17.393Z,9.33
2023-04-09T15:41:01.305Z,9.22
2023-04-09T15:43:30.515Z,9.58
2023-04-09T15:46:10.849Z,10.05
2023-04-09T15:48:40.051Z,10.03
2023-04-09T15:51:28.251Z,9.64
2023-04-09T15:53:59.036Z,9.27
2023-04-09T15:56:40.618Z,8.97
2023-04-09T15:59:13.215Z,9.41
2023-04-09T16:01:43.492Z,9.73
2023-04-09T16:04:12.147Z,9.60
2023-04-09T16:07:02.038Z,9.27
2023-04-09T16:09:41.642Z,8.93
2023-04-09T16:12:13.084Z,8.81
2023-04-09T16:14:44.949Z,9.15
2023-04-09T16:17:19.290Z,9.43
2023-04-09T16:19:50.436Z,9.34
2023-04-09T16:22:20.323Z,9.22
2023-04-09T16:24:49.146Z,8.92
2023-04-09T16:27:23.745Z,8.65
2023-04-09T16:29:57.752Z,8.93
2023-04-09T16:32:46.095Z,9.14
2023-04-09T16:35:15.720Z,9.13
2023-04-09T16:38:03.327Z,8.93
2023-04-09T16:40:31.817Z,8.88
2023-04-09T16:43:06.122Z,9.23
2023-04-09T16:45:37.174Z,9.41
2023-04-09T16:48:26.143Z,9.31
2023-04-09T16:51:03.850Z,9.10
2023-04-09T16:53:44.624Z,8.90
2023-04-09T16:56:16.868Z,9.24
2023-04-09T16:58:46.776Z,9.38
2023-04-09T17:01:21.049Z,9.34
2023-04-09T17:03:49.820Z,9.11
2023-04-09T17:06:18.983Z,8.89
2023-04-09T17:08:48.201Z,9.22
2023-04-09T17:11:18.405Z,9.52
2023-04-09T17:13:52.317Z,9.60
2023-04-09T17:16:25.026Z,9.44
2023-04-09T17:18:54.291Z,9.24
2023-04-09T17:21:27.483Z,9.11
2023-04-09T17:23:57.385Z,9.62
2023-04-09T17:26:26.010Z,10.22
2023-04-09T17:28:54.855Z,10.24
2023-04-09T17:31:24.585Z,10.09
2023-04-09T17:34:13.740Z,9.64
2023-04-09T17:36:42.845Z,9.23
2023-04-09T17:39:12.466Z,9.06
2023-04-09T17:41:42.999Z,9.38
2023-04-09T17:44:13.601Z,9.64
2023-04-09T17:46:42.615Z,9.60
2023-04-09T17:49:12.108Z,9.10
2023-04-09T17:51:44.705Z,9.12
2023-04-09T17:54:13.486Z,9.02
2023-04-09T17:56:43.090Z,9.39
2023-04-09T17:59:12.012Z,9.71
2023-04-09T18:02:01.096Z,9.57
2023-04-09T18:04:30.281Z,9.42
2023-04-09T18:06:59.021Z,9.16
2023-04-09T18:09:27.701Z,8.97
2023-04-09T18:11:57.960Z,9.41
2023-04-09T18:14:32.688Z,9.72
2023-04-09T18:17:03.807Z,9.50
2023-04-09T18:19:32.883Z,9.23
2023-04-09T18:22:03.337Z,9.05
2023-04-09T18:24:33.842Z,8.98
2023-04-09T18:27:04.392Z,9.39
2023-04-09T18:29:37.398Z,9.84
2023-04-09T18:32:05.846Z,9.91
2023-04-09T18:34:35.443Z,9.49
2023-04-09T18:37:04.149Z,9.36
2023-04-09T18:39:34.585Z,9.19
2023-04-09T18:42:04.346Z,9.57
2023-04-09T18:44:37.624Z,9.69
2023-04-09T18:47:12.999Z,9.42
2023-04-09T18:50:12.591Z,9.27
2023-04-09T18:52:51.643Z,9.04
2023-04-09T18:55:21.413Z,8.90
2023-04-09T18:57:53.218Z,9.31
2023-04-09T19:00:21.903Z,9.49
2023-04-09T19:02:51.062Z,9.43
2023-04-09T19:05:20.204Z,9.29
2023-04-09T19:07:48.876Z,9.00
2023-04-09T19:10:17.593Z,8.86
2023-04-09T19:12:51.215Z,9.27
2023-04-09T19:15:22.018Z,9.57
2023-04-09T19:17:50.918Z,9.52
2023-04-09T19:20:19.782Z,9.15
2023-04-09T19:22:49.609Z,8.88
2023-04-09T19:25:25.093Z,8.94
2023-04-09T19:27:54.467Z,9.16
2023-04-09T19:30:23.026Z,9.26
2023-04-09T19:33:10.296Z,9.00
2023-04-09T19:35:41.346Z,8.78
2023-04-09T19:38:15.334Z,9.14
2023-04-09T19:40:46.477Z,9.25
2023-04-09T19:43:16.665Z,9.10
2023-04-09T19:45:45.444Z,8.92
2023-04-09T19:48:13.847Z,8.78
2023-04-09T19:50:48.656Z,9.04
2023-04-09T19:53:18.773Z,9.28
2023-04-09T19:55:47.195Z,9.16
2023-04-09T19:58:16.766Z,8.97
2023-04-09T20:00:45.010Z,8.81
2023-04-09T20:03:14.384Z,9.03
2023-04-09T20:05:45.372Z,9.18
2023-04-09T20:08:15.875Z,9.15
2023-04-09T20:10:47.490Z,9.18
2023-04-09T20:13:18.406Z,9.17
2023-04-09T20:15:47.085Z,9.69
2023-04-09T20:18:20.609Z,10.13
2023-04-09T20:20:51.140Z,10.15
2023-04-09T20:23:19.698Z,9.96
2023-04-09T20:25:56.930Z,9.73
2023-04-09T20:28:26.414Z,9.53
2023-04-09T20:30:54.859Z,9.40
2023-04-09T20:33:23.281Z,9.49
2023-04-09T20:35:53.405Z,9.55
2023-04-09T20:38:22.671Z,9.40
2023-04-09T20:40:52.989Z,9.27
2023-04-09T20:43:21.569Z,9.15
2023-04-09T20:45:59.917Z,9.72
2023-04-09T20:48:31.854Z,10.26
2023-04-09T20:51:00.943Z,10.02
2023-04-09T20:53:32.490Z,9.67
2023-04-09T20:56:52.980Z,9.33
2023-04-09T20:59:23.716Z,9.18
2023-04-09T21:01:52.941Z,9.52
2023-04-09T21:04:22.111Z,9.85
2023-04-09T21:06:52.238Z,9.62
2023-04-09T21:09:20.873Z,9.26
2023-04-09T21:11:49.157Z,9.02
2023-04-09T21:14:18.809Z,8.80
2023-04-09T21:24:28.198Z,9.13
2023-04-09T21:26:57.802Z,8.91
2023-04-09T21:29:28.442Z,9.04
2023-04-09T21:31:57.636Z,9.42
2023-04-09T21:34:26.245Z,9.41
2023-04-09T21:36:55.626Z,9.28
2023-04-09T21:39:23.999Z,9.10
2023-04-09T21:41:57.643Z,8.84
2023-04-09T21:44:26.080Z,9.27
2023-04-09T21:46:54.573Z,9.66
2023-04-09T21:49:23.171Z,9.74
2023-04-09T21:51:52.892Z,9.56
2023-04-09T21:54:21.343Z,9.30
2023-04-09T21:56:49.939Z,9.09
2023-04-09T21:59:20.452Z,9.41
2023-04-09T22:01:50.097Z,9.79
2023-04-09T22:04:18.890Z,9.59
2023-04-09T22:06:48.766Z,9.33
2023-04-09T22:09:18.043Z,9.07
2023-04-09T22:11:46.542Z,8.80
2023-04-09T22:14:18.001Z,9.12
2023-04-09T22:16:47.805Z,9.50
2023-04-09T22:19:16.800Z,9.32
2023-04-09T22:21:50.833Z,9.06
2023-04-09T22:24:21.704Z,8.73
2023-04-09T22:26:50.155Z,8.44
2023-04-09T22:29:20.355Z,8.68
2023-04-09T22:31:49.353Z,8.81
2023-04-09T22:34:21.157Z,8.73
2023-04-09T22:36:51.325Z,8.50
2023-04-09T22:39:19.875Z,8.35
2023-04-09T22:41:48.390Z,8.35
2023-04-09T22:44:17.674Z,8.71
2023-04-09T22:46:49.996Z,8.70
2023-04-09T22:49:18.484Z,8.47
2023-04-09T22:51:49.174Z,8.13
2023-04-09T22:54:20.311Z,8.36
2023-04-09T22:56:49.834Z,8.42
2023-04-09T22:59:19.965Z,8.25
2023-04-09T23:01:50.226Z,8.18
2023-04-09T23:04:24.227Z,8.06
2023-04-09T23:06:53.814Z,8.44
2023-04-09T23:09:22.359Z,8.76
2023-04-09T23:11:51.448Z,8.77
2023-04-09T23:14:19.723Z,8.53
2023-04-09T23:16:48.306Z,8.17
2023-04-09T23:19:23.169Z,8.41
2023-04-09T23:21:52.647Z,8.54
2023-04-09T23:24:21.029Z,8.58
2023-04-09T23:26:50.671Z,8.42
2023-04-09T23:29:19.308Z,8.12
2023-04-09T23:31:48.955Z,8.02
2023-04-09T23:34:17.614Z,8.23
2023-04-09T23:36:46.184Z,8.39
2023-04-09T23:39:18.144Z,8.54
2023-04-09T23:41:47.160Z,8.34
2023-04-09T23:44:19.767Z,8.06
2023-04-09T23:46:48.637Z,8.29
2023-04-09T23:49:17.210Z,8.48
2023-04-09T23:51:53.359Z,8.48
2023-04-09T23:54:22.351Z,8.17
2023-04-09T23:57:04.649Z,8.02
2023-04-09T23:59:36.135Z,8.21
